WGN618 KSJC-KSLC
Flight info
| Callsign | WGN618 |
|---|---|
| Flight time | N/A |
| Altitude | 35000 |
| Route | LOUPE1 MOGEE Q124 SLOWN FLECC YUTES2 |
| Aircraft | MD1F/H-SDE1E2E3FGHIJ2J3J4J5M1RWXY/LB1D1 |
Departure
| Time | 2026-04-30 22:50 |
|---|---|
| Airport | Norman Y. Mineta San Jose International Airport (KSJC) |
Arrival
| Time | N/A |
|---|---|
| Airport | Salt Lake City International Airport (KSLC) |
| Time | Latitude | Longitude | Altitude | Speed | Heading |
|---|---|---|---|---|---|
| 2026-04-30 22:38 | 37.35722 | -121.91724 | 71 ft | 0 kts | 49° |
| 2026-04-30 22:42 | 37.35691 | -121.91773 | 72 ft | 1 kts | 76° |
| 2026-04-30 22:43 | 37.35691 | -121.91792 | 72 ft | 1 kts | 107° |
| 2026-04-30 22:43 | 37.35698 | -121.91808 | 72 ft | 0 kts | 135° |
| 2026-04-30 22:44 | 37.35701 | -121.91812 | 72 ft | 0 kts | 139° |
| 2026-04-30 22:46 | 37.35691 | -121.91801 | 72 ft | 5 kts | 139° |
| 2026-04-30 22:47 | 37.35424 | -121.91486 | 74 ft | 16 kts | 139° |
| 2026-04-30 22:47 | 37.35286 | -121.91463 | 77 ft | 10 kts | 222° |
| 2026-04-30 22:48 | 37.35209 | -121.91569 | 79 ft | 10 kts | 231° |
| 2026-04-30 22:49 | 37.35193 | -121.91809 | 78 ft | 12 kts | 313° |
| 2026-04-30 22:49 | 37.36306 | -121.93022 | 63 ft | 165 kts | 319° |
| 2026-04-30 22:50 | 37.40480 | -121.97311 | 2552 ft | 186 kts | 348° |
| 2026-04-30 22:51 | 37.42628 | -121.95776 | 3415 ft | 198 kts | 72° |
| 2026-04-30 22:51 | 37.41646 | -121.91876 | 4055 ft | 242 kts | 125° |
| 2026-04-30 22:52 | 37.40492 | -121.89912 | 4740 ft | 251 kts | 124° |
| 2026-04-30 22:52 | 37.38220 | -121.85870 | 4789 ft | 255 kts | 122° |
| 2026-04-30 22:53 | 37.36052 | -121.81780 | 4780 ft | 254 kts | 124° |
| 2026-04-30 22:53 | 37.33460 | -121.77974 | 4809 ft | 273 kts | 130° |
| 2026-04-30 22:53 | 37.32038 | -121.75959 | 4793 ft | 278 kts | 130° |
| 2026-04-30 22:54 | 37.29275 | -121.72046 | 4785 ft | 279 kts | 130° |
| 2026-04-30 22:55 | 37.24245 | -121.68376 | 4843 ft | 274 kts | 193° |
| 2026-04-30 22:55 | 37.21275 | -121.71702 | 4928 ft | 273 kts | 257° |
| 2026-04-30 22:56 | 37.22123 | -121.76351 | 4938 ft | 266 kts | 316° |
| 2026-04-30 22:56 | 37.26889 | -121.80747 | 4922 ft | 270 kts | 319° |
| 2026-04-30 22:57 | 37.29728 | -121.84164 | 4946 ft | 271 kts | 315° |
| 2026-04-30 22:57 | 37.32472 | -121.87840 | 4953 ft | 271 kts | 314° |
| 2026-04-30 22:58 | 37.35333 | -121.91654 | 4961 ft | 271 kts | 315° |
| 2026-04-30 22:59 | 37.40675 | -121.94985 | 6297 ft | 270 kts | 356° |
| 2026-04-30 22:59 | 37.47142 | -121.95318 | 9362 ft | 286 kts | 358° |